sensor_id;sensor_type;location;lat;lon;timestamp;P1;durP1;ratioP1;P2;durP2;ratioP2
23146;SDS011;11742;53.532;-1.478;2024-02-26T00:01:12;2.92;;;1.70;;
23146;SDS011;11742;53.532;-1.478;2024-02-26T00:03:57;6.00;;;1.98;;
23146;SDS011;11742;53.532;-1.478;2024-02-26T00:06:43;2.28;;;1.23;;
23146;SDS011;11742;53.532;-1.478;2024-02-26T00:09:28;3.53;;;1.20;;
23146;SDS011;11742;53.532;-1.478;2024-02-26T00:12:12;1.58;;;1.30;;
23146;SDS011;11742;53.532;-1.478;2024-02-26T00:14:56;2.17;;;1.40;;
23146;SDS011;11742;53.532;-1.478;2024-02-26T00:17:41;2.25;;;1.58;;
23146;SDS011;11742;53.532;-1.478;2024-02-26T00:20:26;2.88;;;1.60;;
23146;SDS011;11742;53.532;-1.478;2024-02-26T00:23:10;1.65;;;1.15;;
23146;SDS011;11742;53.532;-1.478;2024-02-26T00:25:55;2.80;;;1.55;;
23146;SDS011;11742;53.532;-1.478;2024-02-26T00:28:39;2.45;;;1.60;;
23146;SDS011;11742;53.532;-1.478;2024-02-26T00:31:23;3.08;;;1.38;;
23146;SDS011;11742;53.532;-1.478;2024-02-26T00:34:07;2.47;;;1.23;;
23146;SDS011;11742;53.532;-1.478;2024-02-26T00:36:52;2.83;;;1.50;;
23146;SDS011;11742;53.532;-1.478;2024-02-26T00:39:36;2.22;;;1.17;;
23146;SDS011;11742;53.532;-1.478;2024-02-26T00:42:20;2.00;;;1.20;;
23146;SDS011;11742;53.532;-1.478;2024-02-26T00:45:04;1.98;;;1.27;;
23146;SDS011;11742;53.532;-1.478;2024-02-26T00:47:50;3.58;;;1.20;;
23146;SDS011;11742;53.532;-1.478;2024-02-26T00:50:35;1.73;;;1.10;;
23146;SDS011;11742;53.532;-1.478;2024-02-26T00:53:19;3.05;;;1.38;;
23146;SDS011;11742;53.532;-1.478;2024-02-26T00:56:03;1.45;;;1.20;;
23146;SDS011;11742;53.532;-1.478;2024-02-26T00:58:47;1.92;;;1.10;;
23146;SDS011;11742;53.532;-1.478;2024-02-26T01:01:31;1.73;;;1.17;;
23146;SDS011;11742;53.532;-1.478;2024-02-26T01:04:15;1.83;;;1.20;;
23146;SDS011;11742;53.532;-1.478;2024-02-26T01:06:59;3.50;;;1.60;;
23146;SDS011;11742;53.532;-1.478;2024-02-26T01:09:43;2.15;;;1.08;;
23146;SDS011;11742;53.532;-1.478;2024-02-26T01:12:27;1.98;;;1.10;;
23146;SDS011;11742;53.532;-1.478;2024-02-26T01:15:12;1.60;;;1.10;;
23146;SDS011;11742;53.532;-1.478;2024-02-26T01:17:57;3.80;;;1.17;;
23146;SDS011;11742;53.532;-1.478;2024-02-26T01:20:41;1.17;;;0.95;;
23146;SDS011;11742;53.532;-1.478;2024-02-26T01:23:26;1.48;;;1.13;;
23146;SDS011;11742;53.532;-1.478;2024-02-26T01:26:10;1.58;;;1.25;;
23146;SDS011;11742;53.532;-1.478;2024-02-26T01:28:54;2.58;;;1.20;;
23146;SDS011;11742;53.532;-1.478;2024-02-26T01:31:39;3.45;;;1.10;;
23146;SDS011;11742;53.532;-1.478;2024-02-26T01:34:23;1.10;;;1.00;;
23146;SDS011;11742;53.532;-1.478;2024-02-26T01:37:07;1.33;;;0.88;;
23146;SDS011;11742;53.532;-1.478;2024-02-26T01:39:51;1.67;;;1.00;;
23146;SDS011;11742;53.532;-1.478;2024-02-26T01:42:38;3.20;;;1.30;;
23146;SDS011;11742;53.532;-1.478;2024-02-26T01:45:22;2.20;;;1.25;;
23146;SDS011;11742;53.532;-1.478;2024-02-26T01:48:08;2.58;;;1.38;;
23146;SDS011;11742;53.532;-1.478;2024-02-26T01:50:54;4.03;;;1.15;;
23146;SDS011;11742;53.532;-1.478;2024-02-26T01:53:38;3.20;;;1.38;;
23146;SDS011;11742;53.532;-1.478;2024-02-26T01:56:22;5.03;;;1.17;;
23146;SDS011;11742;53.532;-1.478;2024-02-26T01:59:12;1.13;;;0.95;;
23146;SDS011;11742;53.532;-1.478;2024-02-26T02:01:57;1.20;;;1.00;;
23146;SDS011;11742;53.532;-1.478;2024-02-26T02:04:45;0.90;;;0.85;;
23146;SDS011;11742;53.532;-1.478;2024-02-26T02:07:30;1.58;;;0.93;;
23146;SDS011;11742;53.532;-1.478;2024-02-26T02:10:17;2.20;;;1.27;;
23146;SDS011;11742;53.532;-1.478;2024-02-26T02:13:06;3.65;;;1.25;;
23146;SDS011;11742;53.532;-1.478;2024-02-26T02:15:51;1.38;;;0.93;;
23146;SDS011;11742;53.532;-1.478;2024-02-26T02:18:36;2.22;;;0.98;;
23146;SDS011;11742;53.532;-1.478;2024-02-26T02:21:20;1.23;;;0.90;;
23146;SDS011;11742;53.532;-1.478;2024-02-26T02:24:05;1.88;;;0.98;;
23146;SDS011;11742;53.532;-1.478;2024-02-26T02:26:49;0.98;;;0.80;;
23146;SDS011;11742;53.532;-1.478;2024-02-26T02:29:34;1.17;;;0.90;;
23146;SDS011;11742;53.532;-1.478;2024-02-26T02:32:20;1.58;;;0.88;;
23146;SDS011;11742;53.532;-1.478;2024-02-26T02:35:04;1.50;;;0.90;;
23146;SDS011;11742;53.532;-1.478;2024-02-26T02:37:49;1.73;;;0.95;;
23146;SDS011;11742;53.532;-1.478;2024-02-26T02:40:35;1.55;;;1.00;;
23146;SDS011;11742;53.532;-1.478;2024-02-26T02:43:20;3.03;;;1.08;;
23146;SDS011;11742;53.532;-1.478;2024-02-26T02:46:04;3.53;;;0.90;;
23146;SDS011;11742;53.532;-1.478;2024-02-26T02:48:48;3.13;;;0.98;;
23146;SDS011;11742;53.532;-1.478;2024-02-26T02:51:33;1.88;;;0.95;;
23146;SDS011;11742;53.532;-1.478;2024-02-26T02:54:17;1.45;;;0.70;;
23146;SDS011;11742;53.532;-1.478;2024-02-26T02:57:01;2.72;;;0.90;;
23146;SDS011;11742;53.532;-1.478;2024-02-26T02:59:47;1.92;;;0.88;;
23146;SDS011;11742;53.532;-1.478;2024-02-26T03:02:31;1.95;;;0.90;;
23146;SDS011;11742;53.532;-1.478;2024-02-26T03:05:15;1.67;;;0.82;;
23146;SDS011;11742;53.532;-1.478;2024-02-26T03:08:00;1.50;;;0.77;;
23146;SDS011;11742;53.532;-1.478;2024-02-26T03:10:44;1.77;;;0.90;;
23146;SDS011;11742;53.532;-1.478;2024-02-26T03:13:28;1.85;;;0.93;;
23146;SDS011;11742;53.532;-1.478;2024-02-26T03:16:12;1.25;;;0.90;;
23146;SDS011;11742;53.532;-1.478;2024-02-26T03:18:56;2.70;;;0.77;;
23146;SDS011;11742;53.532;-1.478;2024-02-26T03:21:41;1.27;;;0.90;;
23146;SDS011;11742;53.532;-1.478;2024-02-26T03:24:25;1.58;;;0.70;;
23146;SDS011;11742;53.532;-1.478;2024-02-26T03:27:09;1.30;;;0.60;;
23146;SDS011;11742;53.532;-1.478;2024-02-26T03:29:54;0.52;;;0.50;;
23146;SDS011;11742;53.532;-1.478;2024-02-26T03:32:38;1.23;;;0.70;;
23146;SDS011;11742;53.532;-1.478;2024-02-26T03:35:22;1.38;;;0.60;;
23146;SDS011;11742;53.532;-1.478;2024-02-26T03:38:06;2.30;;;0.90;;
23146;SDS011;11742;53.532;-1.478;2024-02-26T03:40:50;1.50;;;0.70;;
23146;SDS011;11742;53.532;-1.478;2024-02-26T03:43:34;1.45;;;0.80;;
23146;SDS011;11742;53.532;-1.478;2024-02-26T03:46:18;1.75;;;0.77;;
23146;SDS011;11742;53.532;-1.478;2024-02-26T03:49:02;1.55;;;0.55;;
23146;SDS011;11742;53.532;-1.478;2024-02-26T03:51:46;1.77;;;0.80;;
23146;SDS011;11742;53.532;-1.478;2024-02-26T03:54:31;1.88;;;1.00;;
23146;SDS011;11742;53.532;-1.478;2024-02-26T03:57:15;1.40;;;0.57;;
23146;SDS011;11742;53.532;-1.478;2024-02-26T03:59:59;1.33;;;0.80;;
23146;SDS011;11742;53.532;-1.478;2024-02-26T04:02:44;1.63;;;0.70;;
23146;SDS011;11742;53.532;-1.478;2024-02-26T04:05:28;0.70;;;0.70;;
23146;SDS011;11742;53.532;-1.478;2024-02-26T04:08:12;0.65;;;0.60;;
23146;SDS011;11742;53.532;-1.478;2024-02-26T04:10:56;1.73;;;0.70;;
23146;SDS011;11742;53.532;-1.478;2024-02-26T04:13:40;2.17;;;0.88;;
23146;SDS011;11742;53.532;-1.478;2024-02-26T04:16:24;1.48;;;0.80;;
23146;SDS011;11742;53.532;-1.478;2024-02-26T04:19:09;0.60;;;0.60;;
23146;SDS011;11742;53.532;-1.478;2024-02-26T04:21:53;1.33;;;0.70;;
23146;SDS011;11742;53.532;-1.478;2024-02-26T04:24:38;0.68;;;0.68;;
23146;SDS011;11742;53.532;-1.478;2024-02-26T04:27:22;1.30;;;0.70;;
23146;SDS011;11742;53.532;-1.478;2024-02-26T04:30:06;1.67;;;0.60;;
23146;SDS011;11742;53.532;-1.478;2024-02-26T04:32:51;1.23;;;0.60;;
23146;SDS011;11742;53.532;-1.478;2024-02-26T04:35:36;1.70;;;0.90;;
23146;SDS011;11742;53.532;-1.478;2024-02-26T04:38:20;0.93;;;0.70;;
23146;SDS011;11742;53.532;-1.478;2024-02-26T04:41:06;0.40;;;0.40;;
23146;SDS011;11742;53.532;-1.478;2024-02-26T04:43:50;1.50;;;0.80;;
23146;SDS011;11742;53.532;-1.478;2024-02-26T04:46:34;3.00;;;1.17;;
23146;SDS011;11742;53.532;-1.478;2024-02-26T04:49:18;1.73;;;0.93;;
23146;SDS011;11742;53.532;-1.478;2024-02-26T04:52:03;0.70;;;0.70;;
23146;SDS011;11742;53.532;-1.478;2024-02-26T04:54:47;1.05;;;0.95;;
23146;SDS011;11742;53.532;-1.478;2024-02-26T04:57:31;1.88;;;0.80;;
23146;SDS011;11742;53.532;-1.478;2024-02-26T05:00:15;2.70;;;1.08;;
23146;SDS011;11742;53.532;-1.478;2024-02-26T05:03:00;2.85;;;0.90;;
23146;SDS011;11742;53.532;-1.478;2024-02-26T05:05:44;1.33;;;0.80;;
23146;SDS011;11742;53.532;-1.478;2024-02-26T05:08:28;1.23;;;0.70;;
23146;SDS011;11742;53.532;-1.478;2024-02-26T05:11:14;1.23;;;0.70;;
23146;SDS011;11742;53.532;-1.478;2024-02-26T05:13:58;3.83;;;0.75;;
23146;SDS011;11742;53.532;-1.478;2024-02-26T05:16:44;2.78;;;0.90;;
23146;SDS011;11742;53.532;-1.478;2024-02-26T05:19:28;2.03;;;1.00;;
23146;SDS011;11742;53.532;-1.478;2024-02-26T05:22:12;2.17;;;0.80;;
23146;SDS011;11742;53.532;-1.478;2024-02-26T05:24:56;1.30;;;0.63;;
23146;SDS011;11742;53.532;-1.478;2024-02-26T05:27:41;1.02;;;0.80;;
23146;SDS011;11742;53.532;-1.478;2024-02-26T05:30:27;1.77;;;0.85;;
23146;SDS011;11742;53.532;-1.478;2024-02-26T05:33:12;2.38;;;0.98;;
23146;SDS011;11742;53.532;-1.478;2024-02-26T05:35:56;2.65;;;0.90;;
23146;SDS011;11742;53.532;-1.478;2024-02-26T05:38:40;2.80;;;1.13;;
23146;SDS011;11742;53.532;-1.478;2024-02-26T05:41:24;1.05;;;0.82;;
23146;SDS011;11742;53.532;-1.478;2024-02-26T05:44:10;2.20;;;0.93;;
23146;SDS011;11742;53.532;-1.478;2024-02-26T05:46:55;0.88;;;0.82;;
23146;SDS011;11742;53.532;-1.478;2024-02-26T05:49:39;2.10;;;0.90;;
23146;SDS011;11742;53.532;-1.478;2024-02-26T05:52:23;2.35;;;0.85;;
23146;SDS011;11742;53.532;-1.478;2024-02-26T05:55:08;1.77;;;0.90;;
23146;SDS011;11742;53.532;-1.478;2024-02-26T05:57:53;1.67;;;1.00;;
23146;SDS011;11742;53.532;-1.478;2024-02-26T06:00:37;0.82;;;0.80;;
23146;SDS011;11742;53.532;-1.478;2024-02-26T06:03:21;1.00;;;0.70;;
23146;SDS011;11742;53.532;-1.478;2024-02-26T06:06:05;1.88;;;1.00;;
23146;SDS011;11742;53.532;-1.478;2024-02-26T06:08:50;1.10;;;0.80;;
23146;SDS011;11742;53.532;-1.478;2024-02-26T06:11:34;4.13;;;1.23;;
23146;SDS011;11742;53.532;-1.478;2024-02-26T06:14:18;1.30;;;0.90;;
23146;SDS011;11742;53.532;-1.478;2024-02-26T06:17:04;0.98;;;0.90;;
23146;SDS011;11742;53.532;-1.478;2024-02-26T06:19:48;1.20;;;0.77;;
23146;SDS011;11742;53.532;-1.478;2024-02-26T06:22:32;1.25;;;0.80;;
23146;SDS011;11742;53.532;-1.478;2024-02-26T06:25:16;2.13;;;0.70;;
23146;SDS011;11742;53.532;-1.478;2024-02-26T06:28:00;1.55;;;1.02;;
23146;SDS011;11742;53.532;-1.478;2024-02-26T06:30:44;1.92;;;0.90;;
23146;SDS011;11742;53.532;-1.478;2024-02-26T06:33:29;1.98;;;0.95;;
23146;SDS011;11742;53.532;-1.478;2024-02-26T06:36:14;2.13;;;0.70;;
23146;SDS011;11742;53.532;-1.478;2024-02-26T06:38:59;0.93;;;0.80;;
23146;SDS011;11742;53.532;-1.478;2024-02-26T06:41:44;0.77;;;0.63;;
23146;SDS011;11742;53.532;-1.478;2024-02-26T06:44:30;2.67;;;0.98;;
23146;SDS011;11742;53.532;-1.478;2024-02-26T06:47:17;0.95;;;0.75;;
23146;SDS011;11742;53.532;-1.478;2024-02-26T06:50:02;2.35;;;1.08;;
23146;SDS011;11742;53.532;-1.478;2024-02-26T06:52:46;1.48;;;1.00;;
23146;SDS011;11742;53.532;-1.478;2024-02-26T06:55:31;1.50;;;0.90;;
23146;SDS011;11742;53.532;-1.478;2024-02-26T06:58:15;1.45;;;0.80;;
23146;SDS011;11742;53.532;-1.478;2024-02-26T07:01:00;1.83;;;1.00;;
23146;SDS011;11742;53.532;-1.478;2024-02-26T07:03:44;1.90;;;0.80;;
23146;SDS011;11742;53.532;-1.478;2024-02-26T07:06:29;0.85;;;0.80;;
23146;SDS011;11742;53.532;-1.478;2024-02-26T07:09:13;1.92;;;1.00;;
23146;SDS011;11742;53.532;-1.478;2024-02-26T07:11:57;1.98;;;0.90;;
23146;SDS011;11742;53.532;-1.478;2024-02-26T07:14:42;2.00;;;0.90;;
23146;SDS011;11742;53.532;-1.478;2024-02-26T07:17:26;2.67;;;0.90;;
23146;SDS011;11742;53.532;-1.478;2024-02-26T07:20:11;1.92;;;0.70;;
23146;SDS011;11742;53.532;-1.478;2024-02-26T07:22:56;4.07;;;1.00;;
23146;SDS011;11742;53.532;-1.478;2024-02-26T07:25:41;1.58;;;1.10;;
23146;SDS011;11742;53.532;-1.478;2024-02-26T07:28:25;1.25;;;0.80;;
23146;SDS011;11742;53.532;-1.478;2024-02-26T07:31:10;1.60;;;0.85;;
23146;SDS011;11742;53.532;-1.478;2024-02-26T07:33:54;1.23;;;1.02;;
23146;SDS011;11742;53.532;-1.478;2024-02-26T07:36:38;1.17;;;0.90;;
23146;SDS011;11742;53.532;-1.478;2024-02-26T07:39:23;1.27;;;0.80;;
23146;SDS011;11742;53.532;-1.478;2024-02-26T07:42:08;2.38;;;0.90;;
23146;SDS011;11742;53.532;-1.478;2024-02-26T07:44:52;1.45;;;0.85;;
23146;SDS011;11742;53.532;-1.478;2024-02-26T07:47:36;1.92;;;1.15;;
23146;SDS011;11742;53.532;-1.478;2024-02-26T07:50:24;2.05;;;1.08;;
23146;SDS011;11742;53.532;-1.478;2024-02-26T07:53:08;1.33;;;0.90;;
23146;SDS011;11742;53.532;-1.478;2024-02-26T07:55:52;0.80;;;0.80;;
23146;SDS011;11742;53.532;-1.478;2024-02-26T07:58:36;1.23;;;0.88;;
23146;SDS011;11742;53.532;-1.478;2024-02-26T08:01:21;2.53;;;0.80;;
23146;SDS011;11742;53.532;-1.478;2024-02-26T08:04:05;1.42;;;0.80;;
23146;SDS011;11742;53.532;-1.478;2024-02-26T08:06:49;2.85;;;0.73;;
23146;SDS011;11742;53.532;-1.478;2024-02-26T08:09:33;1.50;;;0.70;;
23146;SDS011;11742;53.532;-1.478;2024-02-26T08:12:17;2.60;;;0.80;;
23146;SDS011;11742;53.532;-1.478;2024-02-26T08:15:02;1.80;;;0.80;;
23146;SDS011;11742;53.532;-1.478;2024-02-26T08:17:47;1.40;;;0.88;;
23146;SDS011;11742;53.532;-1.478;2024-02-26T08:20:31;3.10;;;0.80;;
23146;SDS011;11742;53.532;-1.478;2024-02-26T08:23:16;0.63;;;0.60;;
23146;SDS011;11742;53.532;-1.478;2024-02-26T08:26:01;1.85;;;0.88;;
23146;SDS011;11742;53.532;-1.478;2024-02-26T08:28:47;1.73;;;0.80;;
23146;SDS011;11742;53.532;-1.478;2024-02-26T08:31:32;1.67;;;0.85;;
23146;SDS011;11742;53.532;-1.478;2024-02-26T08:34:17;1.85;;;0.80;;
23146;SDS011;11742;53.532;-1.478;2024-02-26T08:37:01;2.28;;;0.80;;
23146;SDS011;11742;53.532;-1.478;2024-02-26T08:39:46;1.08;;;0.90;;
23146;SDS011;11742;53.532;-1.478;2024-02-26T08:42:30;0.95;;;0.85;;
23146;SDS011;11742;53.532;-1.478;2024-02-26T08:45:14;3.08;;;0.80;;
23146;SDS011;11742;53.532;-1.478;2024-02-26T08:47:58;1.13;;;0.80;;
23146;SDS011;11742;53.532;-1.478;2024-02-26T08:50:42;1.92;;;0.80;;
23146;SDS011;11742;53.532;-1.478;2024-02-26T08:53:26;1.05;;;0.60;;
23146;SDS011;11742;53.532;-1.478;2024-02-26T08:56:10;2.10;;;0.70;;
23146;SDS011;11742;53.532;-1.478;2024-02-26T08:59:00;2.10;;;0.70;;
23146;SDS011;11742;53.532;-1.478;2024-02-26T09:01:47;2.17;;;0.60;;
23146;SDS011;11742;53.532;-1.478;2024-02-26T09:04:33;1.00;;;0.68;;
23146;SDS011;11742;53.532;-1.478;2024-02-26T09:07:18;1.92;;;0.70;;
23146;SDS011;11742;53.532;-1.478;2024-02-26T09:10:02;2.42;;;1.20;;
23146;SDS011;11742;53.532;-1.478;2024-02-26T09:12:47;1.40;;;0.80;;
23146;SDS011;11742;53.532;-1.478;2024-02-26T09:15:31;1.17;;;0.60;;
23146;SDS011;11742;53.532;-1.478;2024-02-26T09:18:15;1.25;;;0.70;;
23146;SDS011;11742;53.532;-1.478;2024-02-26T09:20:59;2.38;;;0.75;;
23146;SDS011;11742;53.532;-1.478;2024-02-26T09:23:48;1.48;;;0.70;;
23146;SDS011;11742;53.532;-1.478;2024-02-26T09:26:36;1.42;;;0.80;;
23146;SDS011;11742;53.532;-1.478;2024-02-26T09:29:20;0.52;;;0.50;;
23146;SDS011;11742;53.532;-1.478;2024-02-26T09:32:05;1.42;;;0.80;;
23146;SDS011;11742;53.532;-1.478;2024-02-26T09:34:50;0.55;;;0.55;;
23146;SDS011;11742;53.532;-1.478;2024-02-26T09:37:34;0.90;;;0.60;;
23146;SDS011;11742;53.532;-1.478;2024-02-26T09:40:20;0.70;;;0.60;;
23146;SDS011;11742;53.532;-1.478;2024-02-26T09:43:05;0.80;;;0.55;;
23146;SDS011;11742;53.532;-1.478;2024-02-26T09:45:54;0.70;;;0.57;;
23146;SDS011;11742;53.532;-1.478;2024-02-26T09:48:39;1.90;;;0.77;;
23146;SDS011;11742;53.532;-1.478;2024-02-26T09:51:26;0.98;;;0.50;;
23146;SDS011;11742;53.532;-1.478;2024-02-26T09:54:10;0.50;;;0.50;;
23146;SDS011;11742;53.532;-1.478;2024-02-26T09:57:00;1.65;;;0.60;;
23146;SDS011;11742;53.532;-1.478;2024-02-26T09:59:48;0.60;;;0.60;;
23146;SDS011;11742;53.532;-1.478;2024-02-26T10:02:33;1.23;;;0.70;;
23146;SDS011;11742;53.532;-1.478;2024-02-26T10:05:20;0.70;;;0.52;;
23146;SDS011;11742;53.532;-1.478;2024-02-26T10:08:05;1.60;;;0.60;;
23146;SDS011;11742;53.532;-1.478;2024-02-26T10:10:51;1.50;;;0.73;;
23146;SDS011;11742;53.532;-1.478;2024-02-26T10:13:38;0.95;;;0.45;;
23146;SDS011;11742;53.532;-1.478;2024-02-26T10:16:22;1.25;;;0.65;;
23146;SDS011;11742;53.532;-1.478;2024-02-26T10:19:06;1.17;;;0.60;;
23146;SDS011;11742;53.532;-1.478;2024-02-26T10:21:52;0.93;;;0.50;;
23146;SDS011;11742;53.532;-1.478;2024-02-26T10:24:41;2.15;;;0.80;;
23146;SDS011;11742;53.532;-1.478;2024-02-26T10:27:25;0.63;;;0.60;;
23146;SDS011;11742;53.532;-1.478;2024-02-26T10:30:21;0.65;;;0.60;;
23146;SDS011;11742;53.532;-1.478;2024-02-26T10:33:06;1.83;;;0.50;;
23146;SDS011;11742;53.532;-1.478;2024-02-26T10:35:51;1.13;;;0.70;;
23146;SDS011;11742;53.532;-1.478;2024-02-26T10:38:37;0.98;;;0.60;;
23146;SDS011;11742;53.532;-1.478;2024-02-26T10:41:22;0.57;;;0.55;;
23146;SDS011;11742;53.532;-1.478;2024-02-26T10:44:08;0.88;;;0.50;;
23146;SDS011;11742;53.532;-1.478;2024-02-26T10:46:56;1.48;;;0.60;;
23146;SDS011;11742;53.532;-1.478;2024-02-26T10:49:44;1.38;;;0.57;;
23146;SDS011;11742;53.532;-1.478;2024-02-26T10:52:33;1.17;;;0.40;;
23146;SDS011;11742;53.532;-1.478;2024-02-26T10:55:18;1.05;;;0.50;;
23146;SDS011;11742;53.532;-1.478;2024-02-26T10:58:05;2.33;;;0.75;;
23146;SDS011;11742;53.532;-1.478;2024-02-26T11:00:53;1.00;;;0.60;;
23146;SDS011;11742;53.532;-1.478;2024-02-26T11:03:40;1.17;;;0.70;;
23146;SDS011;11742;53.532;-1.478;2024-02-26T11:06:25;1.92;;;0.73;;
23146;SDS011;11742;53.532;-1.478;2024-02-26T11:09:14;1.15;;;0.68;;
23146;SDS011;11742;53.532;-1.478;2024-02-26T11:11:58;0.70;;;0.60;;
23146;SDS011;11742;53.532;-1.478;2024-02-26T11:14:44;1.58;;;0.60;;
23146;SDS011;11742;53.532;-1.478;2024-02-26T11:17:30;2.50;;;0.70;;
23146;SDS011;11742;53.532;-1.478;2024-02-26T11:20:15;1.88;;;0.60;;
23146;SDS011;11742;53.532;-1.478;2024-02-26T11:23:01;0.80;;;0.60;;
23146;SDS011;11742;53.532;-1.478;2024-02-26T11:25:45;0.50;;;0.50;;
23146;SDS011;11742;53.532;-1.478;2024-02-26T11:28:31;0.98;;;0.50;;
23146;SDS011;11742;53.532;-1.478;2024-02-26T11:31:18;1.73;;;0.60;;
23146;SDS011;11742;53.532;-1.478;2024-02-26T11:34:09;2.30;;;0.60;;
23146;SDS011;11742;53.532;-1.478;2024-02-26T11:36:55;2.53;;;0.70;;
23146;SDS011;11742;53.532;-1.478;2024-02-26T11:39:40;3.35;;;1.00;;
23146;SDS011;11742;53.532;-1.478;2024-02-26T11:42:25;1.20;;;0.70;;
23146;SDS011;11742;53.532;-1.478;2024-02-26T11:48:25;1.55;;;0.68;;
23146;SDS011;11742;53.532;-1.478;2024-02-26T11:51:12;1.80;;;0.70;;
23146;SDS011;11742;53.532;-1.478;2024-02-26T11:53:58;2.33;;;0.47;;
23146;SDS011;11742;53.532;-1.478;2024-02-26T11:56:42;0.77;;;0.75;;
23146;SDS011;11742;53.532;-1.478;2024-02-26T11:59:38;0.77;;;0.77;;
23146;SDS011;11742;53.532;-1.478;2024-02-26T12:05:28;0.82;;;0.52;;
23146;SDS011;11742;53.532;-1.478;2024-02-26T12:08:15;1.50;;;0.88;;
23146;SDS011;11742;53.532;-1.478;2024-02-26T12:11:03;0.77;;;0.50;;
23146;SDS011;11742;53.532;-1.478;2024-02-26T12:13:47;0.45;;;0.40;;
23146;SDS011;11742;53.532;-1.478;2024-02-26T12:16:39;1.48;;;0.70;;
23146;SDS011;11742;53.532;-1.478;2024-02-26T12:19:26;0.65;;;0.65;;
23146;SDS011;11742;53.532;-1.478;2024-02-26T12:22:12;1.77;;;0.50;;
23146;SDS011;11742;53.532;-1.478;2024-02-26T12:24:58;0.88;;;0.40;;
23146;SDS011;11742;53.532;-1.478;2024-02-26T12:27:44;1.20;;;0.60;;
23146;SDS011;11742;53.532;-1.478;2024-02-26T12:30:28;1.38;;;0.52;;
23146;SDS011;11742;53.532;-1.478;2024-02-26T12:33:15;1.73;;;0.60;;
23146;SDS011;11742;53.532;-1.478;2024-02-26T12:35:59;1.65;;;0.68;;
23146;SDS011;11742;53.532;-1.478;2024-02-26T12:38:44;1.15;;;0.60;;
23146;SDS011;11742;53.532;-1.478;2024-02-26T12:41:28;0.80;;;0.50;;
23146;SDS011;11742;53.532;-1.478;2024-02-26T12:44:14;0.90;;;0.60;;
23146;SDS011;11742;53.532;-1.478;2024-02-26T12:47:02;0.75;;;0.50;;
23146;SDS011;11742;53.532;-1.478;2024-02-26T12:49:48;1.38;;;0.40;;
23146;SDS011;11742;53.532;-1.478;2024-02-26T12:52:34;2.15;;;0.55;;
23146;SDS011;11742;53.532;-1.478;2024-02-26T12:55:19;0.65;;;0.40;;
23146;SDS011;11742;53.532;-1.478;2024-02-26T12:58:04;0.57;;;0.40;;
23146;SDS011;11742;53.532;-1.478;2024-02-26T13:00:49;1.85;;;0.50;;
23146;SDS011;11742;53.532;-1.478;2024-02-26T13:03:35;1.35;;;0.50;;
23146;SDS011;11742;53.532;-1.478;2024-02-26T13:06:20;2.30;;;0.50;;
23146;SDS011;11742;53.532;-1.478;2024-02-26T13:09:08;2.00;;;0.60;;
23146;SDS011;11742;53.532;-1.478;2024-02-26T13:11:56;0.70;;;0.55;;
23146;SDS011;11742;53.532;-1.478;2024-02-26T13:14:40;0.77;;;0.50;;
23146;SDS011;11742;53.532;-1.478;2024-02-26T13:17:24;0.47;;;0.47;;
23146;SDS011;11742;53.532;-1.478;2024-02-26T13:20:11;0.90;;;0.50;;
23146;SDS011;11742;53.532;-1.478;2024-02-26T13:23:05;0.85;;;0.50;;
23146;SDS011;11742;53.532;-1.478;2024-02-26T13:25:56;0.98;;;0.50;;
23146;SDS011;11742;53.532;-1.478;2024-02-26T13:28:40;1.50;;;0.50;;
23146;SDS011;11742;53.532;-1.478;2024-02-26T13:31:24;0.40;;;0.40;;
23146;SDS011;11742;53.532;-1.478;2024-02-26T13:34:09;0.68;;;0.40;;
23146;SDS011;11742;53.532;-1.478;2024-02-26T13:36:53;0.50;;;0.50;;
23146;SDS011;11742;53.532;-1.478;2024-02-26T13:39:38;0.70;;;0.40;;
23146;SDS011;11742;53.532;-1.478;2024-02-26T13:42:24;2.13;;;0.40;;
23146;SDS011;11742;53.532;-1.478;2024-02-26T13:45:08;1.23;;;0.40;;
23146;SDS011;11742;53.532;-1.478;2024-02-26T13:47:54;2.28;;;0.40;;
23146;SDS011;11742;53.532;-1.478;2024-02-26T13:50:44;1.83;;;0.60;;
23146;SDS011;11742;53.532;-1.478;2024-02-26T13:53:28;1.27;;;0.60;;
23146;SDS011;11742;53.532;-1.478;2024-02-26T13:56:12;0.40;;;0.40;;
23146;SDS011;11742;53.532;-1.478;2024-02-26T13:58:57;1.20;;;0.40;;
23146;SDS011;11742;53.532;-1.478;2024-02-26T14:01:42;0.40;;;0.40;;
23146;SDS011;11742;53.532;-1.478;2024-02-26T14:04:26;1.13;;;0.40;;
23146;SDS011;11742;53.532;-1.478;2024-02-26T14:07:10;0.63;;;0.63;;
23146;SDS011;11742;53.532;-1.478;2024-02-26T14:09:56;1.08;;;0.50;;
23146;SDS011;11742;53.532;-1.478;2024-02-26T14:12:41;0.85;;;0.40;;
23146;SDS011;11742;53.532;-1.478;2024-02-26T14:15:25;1.20;;;0.50;;
23146;SDS011;11742;53.532;-1.478;2024-02-26T14:18:12;1.60;;;0.52;;
23146;SDS011;11742;53.532;-1.478;2024-02-26T14:20:56;0.70;;;0.52;;
23146;SDS011;11742;53.532;-1.478;2024-02-26T14:23:41;1.15;;;0.60;;
23146;SDS011;11742;53.532;-1.478;2024-02-26T14:26:28;0.70;;;0.40;;
23146;SDS011;11742;53.532;-1.478;2024-02-26T14:29:13;2.58;;;0.60;;
23146;SDS011;11742;53.532;-1.478;2024-02-26T14:31:58;0.45;;;0.40;;
23146;SDS011;11742;53.532;-1.478;2024-02-26T14:34:42;0.90;;;0.60;;
23146;SDS011;11742;53.532;-1.478;2024-02-26T14:37:27;0.50;;;0.50;;
23146;SDS011;11742;53.532;-1.478;2024-02-26T14:40:11;0.80;;;0.60;;
23146;SDS011;11742;53.532;-1.478;2024-02-26T14:42:55;1.13;;;0.50;;
23146;SDS011;11742;53.532;-1.478;2024-02-26T14:45:41;1.98;;;0.70;;
23146;SDS011;11742;53.532;-1.478;2024-02-26T14:48:27;1.02;;;0.55;;
23146;SDS011;11742;53.532;-1.478;2024-02-26T14:51:12;1.27;;;0.65;;
23146;SDS011;11742;53.532;-1.478;2024-02-26T14:53:57;2.28;;;0.70;;
23146;SDS011;11742;53.532;-1.478;2024-02-26T14:56:43;0.63;;;0.50;;
23146;SDS011;11742;53.532;-1.478;2024-02-26T14:59:27;1.63;;;0.65;;
23146;SDS011;11742;53.532;-1.478;2024-02-26T15:02:12;2.15;;;0.50;;
23146;SDS011;11742;53.532;-1.478;2024-02-26T15:04:56;0.90;;;0.60;;
23146;SDS011;11742;53.532;-1.478;2024-02-26T15:07:41;1.55;;;0.75;;
23146;SDS011;11742;53.532;-1.478;2024-02-26T15:10:25;2.10;;;1.30;;
23146;SDS011;11742;53.532;-1.478;2024-02-26T15:13:09;0.40;;;0.40;;
23146;SDS011;11742;53.532;-1.478;2024-02-26T15:15:53;1.05;;;0.63;;
23146;SDS011;11742;53.532;-1.478;2024-02-26T15:18:37;1.98;;;0.70;;
23146;SDS011;11742;53.532;-1.478;2024-02-26T15:21:22;0.57;;;0.57;;
23146;SDS011;11742;53.532;-1.478;2024-02-26T15:24:08;3.05;;;0.50;;
23146;SDS011;11742;53.532;-1.478;2024-02-26T15:26:52;0.68;;;0.57;;
23146;SDS011;11742;53.532;-1.478;2024-02-26T15:29:37;0.40;;;0.40;;
23146;SDS011;11742;53.532;-1.478;2024-02-26T15:32:21;0.40;;;0.40;;
23146;SDS011;11742;53.532;-1.478;2024-02-26T15:35:05;0.95;;;0.60;;
23146;SDS011;11742;53.532;-1.478;2024-02-26T15:37:50;1.55;;;0.60;;
23146;SDS011;11742;53.532;-1.478;2024-02-26T15:40:34;3.22;;;0.80;;
23146;SDS011;11742;53.532;-1.478;2024-02-26T15:43:19;1.40;;;0.60;;
23146;SDS011;11742;53.532;-1.478;2024-02-26T15:46:05;1.38;;;0.70;;
23146;SDS011;11742;53.532;-1.478;2024-02-26T15:48:50;1.52;;;0.63;;
23146;SDS011;11742;53.532;-1.478;2024-02-26T15:51:35;0.57;;;0.50;;
23146;SDS011;11742;53.532;-1.478;2024-02-26T15:54:20;2.05;;;0.60;;
23146;SDS011;11742;53.532;-1.478;2024-02-26T15:57:04;1.60;;;0.40;;
23146;SDS011;11742;53.532;-1.478;2024-02-26T15:59:49;0.65;;;0.43;;
23146;SDS011;11742;53.532;-1.478;2024-02-26T16:02:36;0.75;;;0.50;;
23146;SDS011;11742;53.532;-1.478;2024-02-26T16:05:20;1.90;;;0.40;;
23146;SDS011;11742;53.532;-1.478;2024-02-26T16:08:06;0.85;;;0.60;;
23146;SDS011;11742;53.532;-1.478;2024-02-26T16:10:57;0.35;;;0.35;;
23146;SDS011;11742;53.532;-1.478;2024-02-26T16:13:41;1.33;;;0.57;;
23146;SDS011;11742;53.532;-1.478;2024-02-26T16:16:26;1.70;;;0.90;;
23146;SDS011;11742;53.532;-1.478;2024-02-26T16:19:15;1.55;;;0.57;;
23146;SDS011;11742;53.532;-1.478;2024-02-26T16:22:01;0.88;;;0.80;;
23146;SDS011;11742;53.532;-1.478;2024-02-26T16:24:45;1.98;;;0.50;;